Terminal Aerodrome Forecast
Issued by NWS

Current Version | Previous Version | Graphics & Text | Print | Product List | Glossary On
Versions: 1 2 3 4 5 6 7 8 9 10 11 12 13 14 15 16 17
812
FTUS41 KPBZ 161129
TAFHLG
TAF
KHLG 161129Z 1612/1712 23013G20KT P6SM VCSH OVC040
     FM161500 23009KT P6SM BKN050
     FM161900 24010KT P6SM SCT250
     FM162300 22006KT P6SM FEW250=

USA.gov is the U.S. government's official web portal to all federal, state and local government web resources and services.